Zuidlaren, Netherlands
Current Conditions -  °F | °C
As of 5:25 PM on Friday 24 Oct 2014 (Local Time) from EHGG Reporting Station
Drizzle Drizzle  
Wind Chill: 54°   Ceiling: 700
Heat Index: 54°   Visibility: 5mi
Dew Point: 52°   Wind: 10mph
Humidity: 94%   Direction: 180°S
Pressure: 30"   Gusts: NA
Location:  53.09°N, 6.68°E
Report Text: EHGG 241525Z AUTO 18009KT 150V210 8000 -DZ BKN007 BKN008BKN015CB 12/11 Q1016 TEMPO 7000 RADZ BKN007
Loading
Personal Weather Stations






























Interactive Weather Map
Tropical Storm Tracking
New forecast layout! Learn more

10-Day Weather Forecast

Advertisements
Track Severe Weather on mobile